Terminal Aerodrome Forecast
Issued by NWS

Home | Current Version | Previous Version | Text Only | Print | Product List | Glossary On
Versions: 1 2 3 4 5 6 7 8 9 10 11 12 13 14 15 16 17
000
FTUS46 KSEW 261302 AAA
TAFBFI
TAF AMD
KBFI 261302Z 2613/2712 18006KT P6SM OVC008
     FM261600 18006KT P6SM OVC012
     FM261900 22004KT P6SM SCT020 SCT045
     FM262100 29005KT P6SM FEW045=

USA.gov is the U.S. government's official web portal to all federal, state and local government web resources and services.